Terminal Aerodrome Forecast
Issued by NWS Bismarck, ND

Home | Current Version | Previous Version | Graphics & Text | Print | Product List | Glossary On
Versions: 1 2 3 4 5 6 7 8 9 10 11 12 13 14 15 16 17 18 19 20 21 22
181
FTUS43 KBIS 210520
TAFBIS
TAF
KBIS 210520Z 2106/2206 32021G28KT P6SM SCT030
     FM211300 32014KT P6SM FEW110
     FM212100 30009KT P6SM SCT200
     FM220100 27006KT P6SM FEW250
     FM220300 00000KT P6SM FEW250=

USA.gov is the U.S. government's official web portal to all federal, state and local government web resources and services.